createdAt,value
2022-08-09T00:02:34.118Z,101131.19
2022-08-09T00:07:44.879Z,101127.05
2022-08-09T00:12:51.664Z,101126.12
2022-08-09T00:18:05.968Z,101128.56
2022-08-09T00:23:54.643Z,101130.05
2022-08-09T00:28:37.026Z,101126.88
2022-08-09T00:33:50.626Z,101126.19
2022-08-09T00:38:53.903Z,101129.52
2022-08-09T00:44:11.235Z,101127.37
2022-08-09T00:49:18.751Z,101125.56
2022-08-09T00:54:35.267Z,101127.40
2022-08-09T00:59:46.258Z,101130.05
2022-08-09T01:05:02.685Z,101134.81
2022-08-09T01:10:15.624Z,101135.91
2022-08-09T01:15:24.142Z,101139.64
2022-08-09T01:20:31.433Z,101136.77
2022-08-09T01:25:41.994Z,101135.14
2022-08-09T01:30:54.832Z,101135.57
2022-08-09T01:36:04.516Z,101132.71
2022-08-09T01:41:13.095Z,101137.34
2022-08-09T01:46:18.253Z,101143.15
2022-08-09T01:51:32.456Z,101148.67
2022-08-09T01:56:39.359Z,101145.52
2022-08-09T02:01:59.231Z,101145.00
2022-08-09T02:07:08.280Z,101147.73
2022-08-09T02:12:22.481Z,101150.83
2022-08-09T02:18:00.573Z,101147.79
2022-08-09T02:22:58.049Z,101146.83
2022-08-09T02:28:09.716Z,101151.23
2022-08-09T02:33:18.275Z,101156.40
2022-08-09T02:38:28.594Z,101157.85
2022-08-09T02:43:42.639Z,101156.86
2022-08-09T02:49:01.354Z,101157.23
2022-08-09T02:54:07.587Z,101154.44
2022-08-09T02:59:16.045Z,101161.67
2022-08-09T03:04:31.767Z,101162.75
2022-08-09T03:09:36.060Z,101165.73
2022-08-09T03:14:46.997Z,101165.17
2022-08-09T03:19:52.818Z,101168.98
2022-08-09T03:25:21.306Z,101170.68
2022-08-09T03:30:33.033Z,101169.95
2022-08-09T03:36:11.285Z,101178.64
2022-08-09T03:40:59.338Z,101179.77
2022-08-09T03:46:04.251Z,101180.83
2022-08-09T03:51:57.701Z,101172.88
2022-08-09T03:56:48.040Z,101173.17
2022-08-09T04:01:59.080Z,101173.29
2022-08-09T04:07:02.713Z,101180.01
2022-08-09T04:12:11.926Z,101188.85
2022-08-09T04:17:14.585Z,101189.20
2022-08-09T04:22:18.620Z,101192.85
2022-08-09T04:27:23.947Z,101190.65
2022-08-09T04:32:33.797Z,101187.17
2022-08-09T04:37:45.827Z,101191.48
2022-08-09T04:42:49.263Z,101190.86
2022-08-09T04:48:00.227Z,101194.33
2022-08-09T04:53:13.309Z,101200.57
2022-08-09T04:58:16.388Z,101202.83
2022-08-09T05:03:41.033Z,101206.14
2022-08-09T05:08:43.906Z,101212.20
2022-08-09T05:13:50.101Z,101213.96
2022-08-09T05:18:59.365Z,101216.83
2022-08-09T05:24:04.077Z,101219.89
2022-08-09T05:29:07.354Z,101226.10
2022-08-09T05:34:20.499Z,101226.23
2022-08-09T05:39:28.986Z,101228.52
2022-08-09T05:44:34.614Z,101231.50
2022-08-09T05:50:28.137Z,101230.80
2022-08-09T05:55:03.133Z,101230.55
2022-08-09T06:00:10.982Z,101228.23
2022-08-09T06:05:13.586Z,101233.49
2022-08-09T06:10:18.063Z,101241.84
2022-08-09T06:15:22.070Z,101242.73
2022-08-09T06:20:24.613Z,101250.17
2022-08-09T06:25:27.072Z,101252.38
2022-08-09T06:30:29.529Z,101253.19
2022-08-09T06:35:35.746Z,101249.52
2022-08-09T06:40:55.037Z,101249.84
2022-08-09T06:46:05.990Z,101258.36
2022-08-09T06:51:12.941Z,101261.33
2022-08-09T06:56:17.325Z,101266.36
2022-08-09T07:01:21.537Z,101269.96
2022-08-09T07:06:28.050Z,101272.45
2022-08-09T07:11:45.572Z,101277.44
2022-08-09T07:16:58.038Z,101273.78
2022-08-09T07:22:01.015Z,101278.17
2022-08-09T07:27:04.691Z,101283.00
2022-08-09T07:32:23.515Z,101284.02
2022-08-09T07:37:42.709Z,101291.00
2022-08-09T07:42:51.478Z,101303.59
2022-08-09T07:48:01.483Z,101303.22
2022-08-09T07:54:06.552Z,101308.23
2022-08-09T07:59:04.427Z,101307.65
2022-08-09T08:04:15.092Z,101303.86
2022-08-09T08:09:39.738Z,101302.24
2022-08-09T08:14:40.439Z,101307.67
2022-08-09T08:19:44.518Z,101309.41
2022-08-09T08:24:50.936Z,101308.02
2022-08-09T08:29:53.966Z,101307.41
2022-08-09T08:34:59.279Z,101307.13
2022-08-09T08:40:05.528Z,101309.64
2022-08-09T08:45:13.545Z,101310.84
2022-08-09T08:50:18.283Z,101307.17
2022-08-09T08:55:23.366Z,101304.19
2022-08-09T09:00:29.998Z,101311.05
2022-08-09T09:06:00.394Z,101313.75
2022-08-09T09:11:03.784Z,101315.73
2022-08-09T09:16:08.083Z,101317.30
2022-08-09T09:21:10.788Z,101319.64
2022-08-09T09:26:15.259Z,101319.83
2022-08-09T09:32:03.960Z,101314.66
2022-08-09T09:36:51.290Z,101313.69
2022-08-09T09:41:58.534Z,101309.46
2022-08-09T09:47:16.421Z,101304.82
2022-08-09T09:52:36.450Z,101303.41
2022-08-09T09:58:03.665Z,101305.55
2022-08-09T10:03:09.091Z,101308.08
2022-08-09T10:08:27.775Z,101305.59
2022-08-09T10:13:43.039Z,101301.47
2022-08-09T10:18:54.262Z,101299.17
2022-08-09T10:24:01.401Z,101293.20
2022-08-09T10:29:21.366Z,101291.96
2022-08-09T10:34:32.785Z,101295.09
2022-08-09T10:39:40.842Z,101296.43
2022-08-09T10:45:17.014Z,101292.11
2022-08-09T10:50:31.454Z,101288.95
2022-08-09T10:55:58.340Z,101282.87
2022-08-09T11:03:06.510Z,101278.59
2022-08-09T11:06:23.444Z,101272.57
2022-08-09T11:11:25.949Z,101273.79
2022-08-09T11:16:36.267Z,101273.18
2022-08-09T11:21:45.716Z,101265.09
2022-08-09T11:27:00.175Z,101262.96
2022-08-09T11:32:10.397Z,101262.14
2022-08-09T11:37:31.250Z,101256.58
2022-08-09T11:42:48.370Z,101253.89
2022-08-09T11:47:54.631Z,101251.77
2022-08-09T11:53:15.958Z,101245.24
2022-08-09T11:58:32.783Z,101240.60
2022-08-09T12:03:57.251Z,101232.90
2022-08-09T12:09:03.578Z,101230.09
2022-08-09T12:14:28.576Z,101222.74
2022-08-09T12:19:33.676Z,101221.84
2022-08-09T12:24:37.047Z,101226.42
2022-08-09T12:30:02.019Z,101216.92
2022-08-09T12:35:19.168Z,101217.92
2022-08-09T12:40:27.262Z,101222.79
2022-08-09T12:45:33.707Z,101212.89
2022-08-09T12:50:41.280Z,101217.24
2022-08-09T12:56:12.496Z,101211.06
2022-08-09T13:01:12.300Z,101211.73
2022-08-09T13:06:21.735Z,101217.77
2022-08-09T13:11:29.119Z,101213.98
2022-08-09T13:16:37.576Z,101206.98
2022-08-09T13:22:36.962Z,101205.78
2022-08-09T13:27:06.076Z,101204.14
2022-08-09T13:32:16.610Z,101200.48
2022-08-09T13:37:24.753Z,101196.14
2022-08-09T13:42:45.992Z,101195.66
2022-08-09T13:47:51.878Z,101197.48
2022-08-09T13:52:57.139Z,101196.48
2022-08-09T13:58:00.533Z,101190.60
2022-08-09T14:04:03.653Z,101190.04
2022-08-09T14:08:26.812Z,101202.09
2022-08-09T14:14:15.287Z,101201.86
2022-08-09T14:18:53.455Z,101197.91
2022-08-09T14:24:01.123Z,101201.40
2022-08-09T14:30:15.192Z,101195.89
2022-08-09T14:34:40.942Z,101192.39
2022-08-09T14:39:47.854Z,101195.22
2022-08-09T14:44:59.491Z,101190.56
2022-08-09T14:50:04.664Z,101183.35
2022-08-09T14:55:08.185Z,101189.23
2022-08-09T15:00:11.874Z,101187.78
2022-08-09T15:05:15.964Z,101186.04
2022-08-09T15:10:19.429Z,101195.19
2022-08-09T15:15:23.619Z,101191.26
2022-08-09T15:21:55.998Z,101195.36
2022-08-09T15:25:49.100Z,101188.77
2022-08-09T15:31:01.729Z,101182.59
2022-08-09T15:36:11.330Z,101184.51
2022-08-09T15:41:20.006Z,101185.84
2022-08-09T15:46:32.395Z,101182.68
2022-08-09T15:52:02.829Z,101181.06
2022-08-09T15:57:00.136Z,101179.32
2022-08-09T16:02:03.436Z,101178.33
2022-08-09T16:07:08.142Z,101173.34
2022-08-09T16:12:11.606Z,101183.07
2022-08-09T16:17:16.927Z,101183.55
2022-08-09T16:22:19.845Z,101187.75
2022-08-09T16:27:23.012Z,101186.83
2022-08-09T16:32:49.752Z,101194.04
2022-08-09T16:37:56.967Z,101184.59
2022-08-09T16:43:03.053Z,101182.52
2022-08-09T16:48:39.805Z,101183.79
2022-08-09T16:53:34.159Z,101178.70
2022-08-09T16:58:39.706Z,101167.20
2022-08-09T17:03:45.130Z,101172.36
2022-08-09T17:08:58.965Z,101177.32
2022-08-09T17:14:08.576Z,101182.91
2022-08-09T17:20:12.601Z,101182.11
2022-08-09T17:25:03.754Z,101184.16
2022-08-09T17:30:14.215Z,101192.09
2022-08-09T17:35:17.392Z,101188.98
2022-08-09T17:40:20.061Z,101193.88
2022-08-09T17:45:37.578Z,101196.01
2022-08-09T17:50:56.486Z,101199.21
2022-08-09T17:56:08.064Z,101199.67
2022-08-09T18:01:22.366Z,101199.70
2022-08-09T18:06:30.846Z,101209.22
2022-08-09T18:12:04.991Z,101220.98
2022-08-09T18:16:58.505Z,101215.41
2022-08-09T18:22:01.043Z,101216.35
2022-08-09T18:27:03.810Z,101224.27
2022-08-09T18:32:09.786Z,101223.68
2022-08-09T18:37:47.890Z,101227.05
2022-08-09T18:42:35.127Z,101231.61
2022-08-09T18:47:38.979Z,101234.83
2022-08-09T18:52:43.023Z,101234.61
2022-08-09T18:57:45.697Z,101231.55
2022-08-09T19:02:50.963Z,101229.98
2022-08-09T19:08:04.555Z,101233.65
2022-08-09T19:13:18.004Z,101228.95
2022-08-09T19:18:36.538Z,101239.44
2022-08-09T19:24:36.156Z,101240.92
2022-08-09T19:29:18.392Z,101243.86
2022-08-09T19:34:24.746Z,101245.35
2022-08-09T19:40:02.275Z,101247.00
2022-08-09T19:44:52.171Z,101252.51
2022-08-09T19:50:08.382Z,101252.06
2022-08-09T19:55:17.453Z,101253.91
2022-08-09T20:00:22.019Z,101258.75
2022-08-09T20:05:25.052Z,101247.52
2022-08-09T20:10:36.194Z,101245.48
2022-08-09T20:16:35.458Z,101252.98
2022-08-09T20:21:02.223Z,101248.42
2022-08-09T20:26:04.997Z,101250.61
2022-08-09T20:31:09.469Z,101252.27
2022-08-09T20:36:16.260Z,101255.69
2022-08-09T20:41:32.464Z,101254.34
2022-08-09T20:46:43.226Z,101249.31
2022-08-09T20:51:50.564Z,101245.55
2022-08-09T20:56:54.134Z,101246.64
2022-08-09T21:01:57.205Z,101247.17
2022-08-09T21:06:59.738Z,101251.86
2022-08-09T21:18:20.657Z,101251.60
2022-08-09T21:22:43.141Z,101251.84
2022-08-09T21:27:52.119Z,101257.77
2022-08-09T21:32:55.586Z,101256.89
2022-08-09T21:38:00.459Z,101253.38
2022-08-09T21:43:04.198Z,101255.08
2022-08-09T21:48:08.699Z,101256.09
2022-08-09T21:53:24.059Z,101260.77
2022-08-09T21:58:33.520Z,101259.70
2022-08-09T22:03:48.532Z,101254.11
2022-08-09T22:09:01.074Z,101255.67
2022-08-09T22:14:03.597Z,101254.48
2022-08-09T22:19:57.746Z,101258.04
2022-08-09T22:24:28.527Z,101256.50
2022-08-09T22:29:38.535Z,101252.77
2022-08-09T22:35:02.695Z,101251.30
2022-08-09T22:40:10.661Z,101252.38
2022-08-09T22:48:11.730Z,101255.31
2022-08-09T22:50:52.644Z,101260.02
2022-08-09T22:56:29.375Z,101262.54
2022-08-09T23:01:18.236Z,101256.64
2022-08-09T23:06:32.573Z,101260.34
2022-08-09T23:11:38.514Z,101260.26
2022-08-09T23:16:40.895Z,101261.48
2022-08-09T23:21:43.340Z,101254.63
2022-08-09T23:26:45.992Z,101252.34
2022-08-09T23:31:52.519Z,101257.19
2022-08-09T23:36:56.734Z,101256.76
2022-08-09T23:41:59.343Z,101254.31
2022-08-09T23:47:02.121Z,101249.92
2022-08-09T23:52:04.957Z,101253.27
2022-08-09T23:57:07.401Z,101253.22
